createdAt,value
2023-04-05T00:00:35.523Z,12.73
2023-04-05T00:03:03.252Z,12.20
2023-04-05T00:05:34.648Z,14.57
2023-04-05T00:08:02.380Z,12.77
2023-04-05T00:10:30.944Z,11.50
2023-04-05T00:12:58.770Z,13.80
2023-04-05T00:15:27.328Z,13.93
2023-04-05T00:17:54.981Z,12.75
2023-04-05T00:20:22.014Z,14.48
2023-04-05T00:22:50.935Z,13.50
2023-04-05T00:25:18.619Z,11.48
2023-04-05T00:27:45.943Z,12.07
2023-04-05T00:30:13.507Z,12.45
2023-04-05T00:32:40.723Z,12.75
2023-04-05T00:35:08.065Z,12.27
2023-04-05T00:37:35.020Z,11.25
2023-04-05T00:40:01.991Z,14.35
2023-04-05T00:42:30.455Z,13.75
2023-04-05T00:44:57.438Z,12.02
2023-04-05T00:47:24.988Z,16.80
2023-04-05T00:49:52.525Z,15.07
2023-04-05T00:52:23.541Z,15.63
2023-04-05T00:54:52.639Z,15.68
2023-04-05T00:57:20.254Z,18.70
2023-04-05T00:59:47.254Z,14.05
2023-04-05T01:02:52.186Z,12.02
2023-04-05T01:05:24.074Z,12.13
2023-04-05T01:07:59.359Z,10.82
2023-04-05T01:10:35.603Z,11.75
2023-04-05T01:13:03.004Z,13.80
2023-04-05T01:15:30.982Z,13.35
2023-04-05T01:17:58.169Z,11.02
2023-04-05T01:20:26.537Z,13.27
2023-04-05T01:23:20.937Z,12.32
2023-04-05T01:26:06.926Z,12.98
2023-04-05T01:28:49.020Z,11.93
2023-04-05T01:31:21.760Z,13.15
2023-04-05T01:34:19.493Z,13.77
2023-04-05T01:37:01.475Z,16.08
2023-04-05T01:39:30.055Z,14.25
2023-04-05T01:42:00.368Z,14.82
2023-04-05T01:44:27.988Z,14.50
2023-04-05T01:46:56.283Z,16.63
2023-04-05T01:49:24.499Z,14.95
2023-04-05T01:51:51.697Z,19.23
2023-04-05T01:54:18.671Z,15.98
2023-04-05T01:56:46.215Z,16.05
2023-04-05T01:59:13.311Z,14.75
2023-04-05T02:01:40.455Z,14.15
2023-04-05T02:04:07.406Z,14.93
2023-04-05T02:06:34.367Z,16.33
2023-04-05T02:09:02.245Z,15.63
2023-04-05T02:11:29.272Z,15.80
2023-04-05T02:13:58.857Z,13.02
2023-04-05T02:16:45.820Z,14.75
2023-04-05T02:19:13.404Z,13.77
2023-04-05T02:21:41.079Z,13.98
2023-04-05T02:24:08.290Z,15.88
2023-04-05T02:26:35.288Z,14.23
2023-04-05T02:29:02.224Z,14.38
2023-04-05T02:31:29.216Z,14.35
2023-04-05T02:33:56.191Z,16.10
2023-04-05T02:36:24.468Z,14.68
2023-04-05T02:38:51.405Z,15.30
2023-04-05T02:41:18.419Z,18.33
2023-04-05T02:43:45.647Z,17.45
2023-04-05T02:46:12.610Z,17.13
2023-04-05T02:48:42.136Z,19.70
2023-04-05T02:51:10.584Z,17.70
2023-04-05T02:53:40.609Z,18.15
2023-04-05T02:56:13.790Z,16.60
2023-04-05T02:58:43.846Z,19.85
2023-04-05T03:01:11.206Z,17.92
2023-04-05T03:03:40.670Z,23.23
2023-04-05T03:06:11.947Z,17.77
2023-04-05T03:08:46.670Z,18.15
2023-04-05T03:11:16.726Z,21.13
2023-04-05T03:13:47.858Z,20.60
2023-04-05T03:16:28.746Z,21.55
2023-04-05T03:18:57.294Z,16.65
2023-04-05T03:21:24.974Z,20.60
2023-04-05T03:24:00.533Z,17.52
2023-04-05T03:26:35.898Z,20.30
2023-04-05T03:29:03.591Z,21.80
2023-04-05T03:31:34.772Z,18.25
2023-04-05T03:34:05.871Z,19.27
2023-04-05T03:36:43.410Z,17.00
2023-04-05T03:39:32.230Z,17.88
2023-04-05T03:41:59.672Z,15.50
2023-04-05T03:44:26.586Z,16.60
2023-04-05T03:46:54.030Z,21.85
2023-04-05T03:49:22.823Z,15.57
2023-04-05T03:51:50.205Z,17.75
2023-04-05T03:54:18.819Z,16.13
2023-04-05T03:56:46.205Z,17.17
2023-04-05T03:59:16.388Z,17.27
2023-04-05T04:01:45.009Z,19.77
2023-04-05T04:04:13.727Z,17.17
2023-04-05T04:06:44.704Z,16.00
2023-04-05T04:09:13.557Z,22.77
2023-04-05T04:11:40.900Z,18.02
2023-04-05T04:14:08.774Z,18.00
2023-04-05T04:16:54.343Z,14.85
2023-04-05T04:19:31.570Z,15.55
2023-04-05T04:22:22.718Z,17.15
2023-04-05T04:25:11.387Z,18.20
2023-04-05T04:27:56.539Z,14.00
2023-04-05T04:30:57.519Z,15.35
2023-04-05T04:33:50.557Z,22.67
2023-04-05T04:36:36.415Z,18.58
2023-04-05T04:39:45.205Z,18.95
2023-04-05T04:42:23.981Z,18.30
2023-04-05T04:45:07.274Z,24.48
2023-04-05T04:47:48.108Z,20.70
2023-04-05T04:50:20.047Z,12.98
2023-04-05T04:52:47.450Z,14.63
2023-04-05T04:55:14.526Z,12.00
2023-04-05T04:57:42.957Z,12.13
2023-04-05T05:00:13.585Z,15.38
2023-04-05T05:02:42.358Z,11.45
2023-04-05T05:05:10.000Z,10.75
2023-04-05T05:07:41.084Z,10.15
2023-04-05T05:10:09.534Z,14.15
2023-04-05T05:12:37.332Z,13.00
2023-04-05T05:15:04.649Z,11.77
2023-04-05T05:17:32.557Z,12.88
2023-04-05T05:20:00.506Z,10.82
2023-04-05T05:22:28.401Z,15.32
2023-04-05T05:24:55.374Z,11.77
2023-04-05T05:27:23.072Z,12.23
2023-04-05T05:29:50.027Z,12.45
2023-04-05T05:32:17.155Z,10.73
2023-04-05T05:34:45.240Z,11.60
2023-04-05T05:37:16.801Z,12.88
2023-04-05T05:39:46.537Z,10.40
2023-04-05T05:42:13.531Z,12.07
2023-04-05T05:44:40.732Z,10.65
2023-04-05T05:47:07.738Z,13.30
2023-04-05T05:49:34.766Z,10.20
2023-04-05T05:52:01.834Z,11.55
2023-04-05T05:54:28.842Z,9.93
2023-04-05T05:56:55.865Z,13.10
2023-04-05T05:59:23.077Z,12.32
2023-04-05T06:01:51.279Z,13.35
2023-04-05T06:04:19.394Z,11.85
2023-04-05T06:06:47.936Z,10.73
2023-04-05T06:09:15.948Z,11.40
2023-04-05T06:11:53.127Z,17.08
2023-04-05T06:14:24.474Z,12.50
2023-04-05T06:16:51.459Z,13.88
2023-04-05T06:19:18.541Z,13.20
2023-04-05T06:21:45.559Z,12.70
2023-04-05T06:24:12.662Z,11.48
2023-04-05T06:26:39.711Z,13.18
2023-04-05T06:29:06.805Z,12.73
2023-04-05T06:31:35.835Z,9.45
2023-04-05T06:34:03.157Z,13.73
2023-04-05T06:36:32.130Z,11.43
2023-04-05T06:38:59.660Z,10.55
2023-04-05T06:41:27.897Z,15.75
2023-04-05T06:43:56.625Z,12.70
2023-04-05T06:46:24.799Z,14.80
2023-04-05T06:48:52.803Z,10.55
2023-04-05T06:51:20.233Z,12.70
2023-04-05T06:53:47.227Z,12.63
2023-04-05T06:56:14.229Z,16.27
2023-04-05T06:58:41.480Z,14.73
2023-04-05T07:01:08.556Z,11.52
2023-04-05T07:03:35.676Z,11.60
2023-04-05T07:06:03.079Z,17.20
2023-04-05T07:08:32.929Z,16.00
2023-04-05T07:10:59.888Z,17.38
2023-04-05T07:13:26.944Z,16.02
2023-04-05T07:16:01.227Z,13.80
2023-04-05T07:18:30.090Z,14.93
2023-04-05T07:21:02.160Z,14.43
2023-04-05T07:23:29.955Z,16.25
2023-04-05T07:26:05.278Z,16.65
2023-04-05T07:28:33.940Z,14.50
2023-04-05T07:31:01.726Z,11.65
2023-04-05T07:33:28.790Z,17.88
2023-04-05T07:35:57.233Z,13.48
2023-04-05T07:38:25.059Z,16.55
2023-04-05T07:40:52.113Z,14.13
2023-04-05T07:43:19.676Z,12.45
2023-04-05T07:45:46.808Z,15.85
2023-04-05T07:48:13.812Z,11.75
2023-04-05T07:50:41.415Z,10.70
2023-04-05T07:53:08.504Z,13.15
2023-04-05T07:55:38.200Z,12.15
2023-04-05T07:58:05.185Z,17.38
2023-04-05T08:00:32.331Z,15.07
2023-04-05T08:03:02.242Z,11.18
2023-04-05T08:05:29.727Z,18.25
2023-04-05T08:07:58.415Z,25.98
2023-04-05T08:10:25.918Z,12.50
2023-04-05T08:12:53.543Z,20.75
2023-04-05T08:15:20.500Z,16.25
2023-04-05T08:17:47.587Z,15.98
2023-04-05T08:20:14.611Z,17.42
2023-04-05T08:22:41.657Z,17.98
2023-04-05T08:25:09.379Z,11.75
2023-04-05T08:27:36.493Z,19.55
2023-04-05T08:30:04.293Z,13.48
2023-04-05T08:32:33.127Z,13.70
2023-04-05T08:35:00.455Z,11.75
2023-04-05T08:37:28.088Z,14.05
2023-04-05T08:39:55.377Z,13.00
2023-04-05T08:42:36.823Z,13.32
2023-04-05T08:45:04.996Z,16.38
2023-04-05T08:47:35.757Z,11.82
2023-04-05T08:50:04.003Z,14.35
2023-04-05T08:52:38.061Z,15.57
2023-04-05T08:55:06.645Z,14.80
2023-04-05T08:57:37.479Z,12.45
2023-04-05T09:00:05.464Z,11.27
2023-04-05T09:02:33.680Z,12.32
2023-04-05T09:05:02.717Z,15.13
2023-04-05T09:07:31.424Z,10.52
2023-04-05T09:12:28.448Z,10.07
2023-04-05T09:14:56.279Z,9.85
2023-04-05T09:17:23.328Z,10.73
2023-04-05T09:19:50.620Z,10.48
2023-04-05T09:22:20.696Z,13.80
2023-04-05T09:24:47.837Z,13.05
2023-04-05T09:27:20.563Z,13.18
2023-04-05T09:29:59.831Z,14.02
2023-04-05T09:32:29.500Z,13.68
2023-04-05T09:35:01.317Z,9.40
2023-04-05T09:37:31.379Z,14.52
2023-04-05T09:40:07.010Z,8.13
2023-04-05T09:42:47.719Z,13.80
2023-04-05T09:45:20.783Z,10.50
2023-04-05T09:47:58.545Z,11.82
2023-04-05T09:50:26.002Z,9.85
2023-04-05T09:53:16.239Z,16.95
2023-04-05T09:55:44.005Z,12.18
2023-04-05T09:58:19.603Z,9.02
2023-04-05T10:01:00.018Z,12.38
2023-04-05T10:03:46.459Z,13.70
2023-04-05T10:06:14.537Z,15.02
2023-04-05T10:08:41.571Z,9.18
2023-04-05T10:11:09.204Z,9.20
2023-04-05T10:13:38.759Z,13.80
2023-04-05T10:16:10.444Z,9.30
2023-04-05T10:18:51.430Z,10.50
2023-04-05T10:21:23.920Z,9.82
2023-04-05T10:24:01.567Z,10.65
2023-04-05T10:26:40.562Z,11.68
2023-04-05T10:29:13.432Z,11.60
2023-04-05T10:32:29.516Z,15.05
2023-04-05T10:35:11.333Z,18.17
2023-04-05T10:37:44.002Z,15.35
2023-04-05T10:40:13.127Z,19.65
2023-04-05T10:42:46.660Z,10.70
2023-04-05T10:45:18.147Z,15.10
2023-04-05T10:47:59.268Z,14.93
2023-04-05T10:50:26.470Z,21.45
2023-04-05T10:52:53.813Z,19.40
2023-04-05T10:55:22.051Z,17.67
2023-04-05T10:57:50.769Z,15.73
2023-04-05T11:00:19.016Z,13.63
2023-04-05T11:02:47.691Z,8.77
2023-04-05T11:05:31.695Z,11.45
2023-04-05T11:08:08.878Z,8.82
2023-04-05T11:10:37.761Z,14.48
2023-04-05T11:13:06.888Z,12.25
2023-04-05T11:15:35.251Z,12.07
2023-04-05T11:18:09.633Z,17.05
2023-04-05T11:21:10.879Z,15.15
2023-04-05T11:24:09.778Z,11.90
2023-04-05T11:26:49.066Z,17.38
2023-04-05T11:29:16.313Z,16.13
2023-04-05T11:32:11.675Z,13.90
2023-04-05T11:34:41.708Z,16.70
2023-04-05T11:37:08.714Z,14.77
2023-04-05T11:39:37.462Z,11.88
2023-04-05T11:42:12.424Z,10.45
2023-04-05T11:44:43.558Z,13.95
2023-04-05T11:47:11.749Z,16.38
2023-04-05T11:49:40.226Z,16.38
2023-04-05T11:52:15.666Z,13.05
2023-04-05T11:54:46.875Z,15.13
2023-04-05T11:57:22.603Z,16.50
2023-04-05T11:59:52.268Z,15.10
2023-04-05T12:02:20.504Z,12.48
2023-04-05T12:04:57.740Z,11.65
2023-04-05T12:07:29.547Z,13.95
2023-04-05T12:10:01.195Z,11.98
2023-04-05T12:12:33.434Z,11.13
2023-04-05T12:15:02.253Z,17.23
2023-04-05T12:17:40.680Z,12.88
2023-04-05T12:20:08.774Z,18.70
2023-04-05T12:22:38.189Z,14.73
2023-04-05T12:25:06.046Z,12.23
2023-04-05T12:27:33.238Z,9.90
2023-04-05T12:30:07.159Z,15.73
2023-04-05T12:32:59.052Z,16.60
2023-04-05T12:35:34.930Z,18.55
2023-04-05T12:38:03.769Z,13.73
2023-04-05T12:40:32.964Z,13.85
2023-04-05T12:43:08.971Z,15.90
2023-04-05T12:45:43.820Z,15.82
2023-04-05T12:48:19.915Z,12.15
2023-04-05T12:50:48.747Z,10.07
2023-04-05T12:53:21.145Z,8.15
2023-04-05T12:55:50.912Z,12.25
2023-04-05T12:58:19.494Z,8.50
2023-04-05T13:00:47.093Z,11.70
2023-04-05T13:03:21.228Z,8.73
2023-04-05T13:05:51.711Z,10.55
2023-04-05T13:08:19.242Z,14.82
2023-04-05T13:10:47.574Z,14.73
2023-04-05T13:13:17.944Z,12.93
2023-04-05T13:15:52.060Z,12.77
2023-04-05T13:18:20.800Z,13.00
2023-04-05T13:20:48.003Z,12.63
2023-04-05T13:23:15.054Z,10.55
2023-04-05T13:25:43.765Z,11.60
2023-04-05T13:28:11.158Z,11.27
2023-04-05T13:30:38.257Z,7.95
2023-04-05T13:33:05.432Z,11.57
2023-04-05T13:35:33.144Z,9.73
2023-04-05T13:38:04.260Z,13.27
2023-04-05T13:40:32.577Z,14.45
2023-04-05T13:42:59.836Z,7.38
2023-04-05T13:45:28.155Z,13.70
2023-04-05T13:47:55.800Z,8.52
2023-04-05T13:50:23.048Z,10.45
2023-04-05T13:52:50.048Z,8.23
2023-04-05T13:55:17.251Z,11.60
2023-04-05T13:57:44.393Z,8.57
2023-04-05T14:00:12.083Z,10.65
2023-04-05T14:02:39.869Z,10.65
2023-04-05T14:05:07.934Z,11.15
2023-04-05T14:07:35.791Z,10.10
2023-04-05T14:10:02.845Z,8.00
2023-04-05T14:12:31.802Z,11.20
2023-04-05T14:15:00.350Z,8.48
2023-04-05T14:17:28.278Z,10.50
2023-04-05T14:19:55.508Z,8.90
2023-04-05T14:22:22.697Z,12.38
2023-04-05T14:24:49.803Z,8.82
2023-04-05T14:27:16.971Z,10.82
2023-04-05T14:29:45.892Z,13.25
2023-04-05T14:32:13.071Z,7.13
2023-04-05T14:34:40.334Z,10.25
2023-04-05T14:37:08.098Z,13.02
2023-04-05T14:39:35.225Z,9.30
2023-04-05T14:42:02.550Z,6.78
2023-04-05T14:44:29.553Z,9.65
2023-04-05T14:46:56.702Z,7.65
2023-04-05T14:49:23.813Z,8.73
2023-04-05T14:51:51.135Z,8.95
2023-04-05T14:54:18.603Z,7.28
2023-04-05T14:56:45.638Z,12.48
2023-04-05T14:59:12.754Z,9.95
2023-04-05T15:01:41.916Z,11.95
2023-04-05T15:04:09.428Z,8.07
2023-04-05T15:06:36.591Z,10.80
2023-04-05T15:09:03.983Z,11.15
2023-04-05T15:11:34.294Z,8.02
2023-04-05T15:14:01.559Z,10.25
2023-04-05T15:16:30.369Z,12.32
2023-04-05T15:18:59.187Z,12.18
2023-04-05T15:21:26.316Z,11.27
2023-04-05T15:23:53.362Z,13.98
2023-04-05T15:26:21.080Z,14.60
2023-04-05T15:28:48.156Z,10.27
2023-04-05T15:31:15.150Z,13.13
2023-04-05T15:33:42.199Z,10.02
2023-04-05T15:36:09.352Z,17.58
2023-04-05T15:38:36.569Z,12.75
2023-04-05T15:41:03.790Z,9.63
2023-04-05T15:43:32.632Z,11.88
2023-04-05T15:45:59.676Z,14.85
2023-04-05T15:48:26.706Z,11.93
2023-04-05T15:50:53.709Z,10.20
2023-04-05T15:53:20.763Z,10.63
2023-04-05T15:55:47.855Z,11.32
2023-04-05T15:58:14.902Z,18.52
2023-04-05T16:00:41.973Z,17.80
2023-04-05T16:03:09.093Z,14.90
2023-04-05T16:05:36.473Z,15.70
2023-04-05T16:08:03.476Z,14.77
2023-04-05T16:10:30.682Z,14.73
2023-04-05T16:12:57.799Z,14.85
2023-04-05T16:15:24.906Z,14.48
2023-04-05T16:17:52.018Z,17.33
2023-04-05T16:20:19.134Z,15.48
2023-04-05T16:22:46.247Z,15.52
2023-04-05T16:25:13.335Z,14.43
2023-04-05T16:27:40.543Z,15.93
2023-04-05T16:30:08.389Z,17.20
2023-04-05T16:32:35.437Z,12.88
2023-04-05T16:35:02.507Z,18.40
2023-04-05T16:37:29.922Z,14.20
2023-04-05T16:39:56.904Z,15.40
2023-04-05T16:42:23.949Z,20.02
2023-04-05T16:44:51.194Z,15.60
2023-04-05T16:47:18.174Z,15.30
2023-04-05T16:49:45.362Z,10.93
2023-04-05T16:52:12.346Z,16.58
2023-04-05T16:54:39.397Z,12.57
2023-04-05T16:57:06.521Z,10.48
2023-04-05T16:59:33.662Z,11.52
2023-04-05T17:02:01.039Z,11.85
2023-04-05T17:04:28.063Z,14.63
2023-04-05T17:06:55.088Z,8.65
2023-04-05T17:09:23.199Z,14.98
2023-04-05T17:11:50.265Z,17.70
2023-04-05T17:14:17.254Z,10.15
2023-04-05T17:16:44.424Z,11.25
2023-04-05T17:19:11.491Z,15.85
2023-04-05T17:21:38.578Z,11.23
2023-04-05T17:24:05.946Z,10.07
2023-04-05T17:26:33.033Z,12.82
2023-04-05T17:29:00.116Z,15.05
2023-04-05T17:31:27.306Z,8.52
2023-04-05T17:33:54.513Z,13.45
2023-04-05T17:36:21.653Z,8.98
2023-04-05T17:38:48.648Z,11.95
2023-04-05T17:41:15.756Z,12.15
2023-04-05T17:43:42.821Z,10.45
2023-04-05T17:46:13.820Z,13.15
2023-04-05T17:48:41.980Z,11.35
2023-04-05T17:51:09.647Z,8.60
2023-04-05T17:53:36.675Z,10.48
2023-04-05T17:56:03.860Z,14.82
2023-04-05T17:58:32.455Z,8.50
2023-04-05T18:01:00.321Z,15.00
2023-04-05T18:03:27.922Z,11.77
2023-04-05T18:05:55.930Z,13.55
2023-04-05T18:08:24.386Z,12.60
2023-04-05T18:11:00.810Z,8.02
2023-04-05T18:13:28.564Z,11.57
2023-04-05T18:16:00.047Z,10.63
2023-04-05T18:18:27.670Z,7.75
2023-04-05T18:20:56.158Z,9.30
2023-04-05T18:23:25.052Z,13.57
2023-04-05T18:25:53.548Z,7.95
2023-04-05T18:28:23.464Z,16.50
2023-04-05T18:30:52.914Z,9.15
2023-04-05T18:33:22.440Z,10.43
2023-04-05T18:35:50.587Z,10.00
2023-04-05T18:38:17.878Z,9.52
2023-04-05T18:40:45.014Z,12.10
2023-04-05T18:43:12.125Z,8.57
2023-04-05T18:45:39.513Z,11.82
2023-04-05T18:48:06.804Z,13.88
2023-04-05T18:50:35.153Z,12.63
2023-04-05T18:53:02.616Z,11.90
2023-04-05T18:55:29.579Z,9.80
2023-04-05T18:57:56.988Z,10.77
2023-04-05T19:00:24.147Z,7.93
2023-04-05T19:02:51.491Z,7.68
2023-04-05T19:05:18.591Z,8.82
2023-04-05T19:07:45.678Z,8.60
2023-04-05T19:10:12.767Z,10.52
2023-04-05T19:12:39.855Z,10.02
2023-04-05T19:15:07.679Z,10.10
2023-04-05T19:17:34.791Z,8.82
2023-04-05T19:20:01.825Z,10.27
2023-04-05T19:22:29.011Z,7.45
2023-04-05T19:24:56.111Z,11.18
2023-04-05T19:27:23.229Z,8.82
2023-04-05T19:29:50.479Z,15.18
2023-04-05T19:32:17.520Z,8.73
2023-04-05T19:34:44.599Z,6.95
2023-04-05T19:37:11.708Z,11.02
2023-04-05T19:39:38.712Z,9.85
2023-04-05T19:42:06.526Z,7.85
2023-04-05T19:44:54.845Z,10.57
2023-04-05T19:47:22.414Z,7.65
2023-04-05T19:49:51.370Z,9.35
2023-04-05T19:52:45.539Z,10.43
2023-04-05T19:55:31.318Z,10.60
2023-04-05T19:58:03.281Z,11.52
2023-04-05T20:00:42.290Z,8.98
2023-04-05T20:03:24.886Z,11.27
2023-04-05T20:06:12.958Z,10.93
2023-04-05T20:08:45.625Z,8.30
2023-04-05T20:11:14.016Z,8.88
2023-04-05T20:13:47.981Z,8.90
2023-04-05T20:16:16.584Z,9.18
2023-04-05T20:18:48.647Z,12.23
2023-04-05T20:21:16.781Z,9.10
2023-04-05T20:23:44.707Z,11.77
2023-04-05T20:26:15.683Z,11.90
2023-04-05T20:28:55.493Z,9.65
2023-04-05T20:31:29.195Z,7.97
2023-04-05T20:34:15.227Z,9.57
2023-04-05T20:36:47.785Z,8.00
2023-04-05T20:39:14.972Z,10.48
2023-04-05T20:41:42.887Z,10.05
2023-04-05T20:44:10.168Z,9.25
2023-04-05T20:46:37.563Z,8.57
2023-04-05T20:49:04.739Z,7.70
2023-04-05T20:51:31.964Z,8.55
2023-04-05T20:53:58.952Z,9.57
2023-04-05T20:56:26.032Z,10.23
2023-04-05T20:58:55.006Z,12.60
2023-04-05T21:01:22.178Z,8.73
2023-04-05T21:03:49.182Z,7.75
2023-04-05T21:06:16.652Z,9.90
2023-04-05T21:08:43.711Z,10.93
2023-04-05T21:11:13.556Z,8.52
2023-04-05T21:13:41.571Z,9.75
2023-04-05T21:16:08.652Z,11.40
2023-04-05T21:18:36.569Z,9.50
2023-04-05T21:21:04.378Z,10.15
2023-04-05T21:23:33.502Z,9.13
2023-04-05T21:26:01.704Z,9.73
2023-04-05T21:28:28.698Z,8.55
2023-04-05T21:30:55.747Z,9.93
2023-04-05T21:33:22.932Z,10.32
2023-04-05T21:35:50.968Z,11.25
2023-04-05T21:38:18.577Z,9.88
2023-04-05T21:40:47.254Z,8.57
2023-04-05T21:43:14.229Z,9.07
2023-04-05T21:45:41.236Z,12.27
2023-04-05T21:48:08.402Z,8.55
2023-04-05T21:50:35.739Z,8.02
2023-04-05T21:53:02.860Z,8.70
2023-04-05T21:55:29.855Z,9.50
2023-04-05T21:57:56.848Z,8.02
2023-04-05T22:00:24.072Z,10.43
2023-04-05T22:02:51.266Z,12.20
2023-04-05T22:07:48.356Z,7.53
2023-04-05T22:10:15.499Z,7.97
2023-04-05T22:12:42.490Z,11.55
2023-04-05T22:15:10.231Z,9.95
2023-04-05T22:17:37.313Z,9.60
2023-04-05T22:20:04.765Z,8.25
2023-04-05T22:22:31.968Z,9.05
2023-04-05T22:24:59.048Z,8.73
2023-04-05T22:27:28.288Z,9.07
2023-04-05T22:29:56.684Z,8.75
2023-04-05T22:32:23.836Z,7.47
2023-04-05T22:34:53.631Z,7.63
2023-04-05T22:37:20.641Z,8.15
2023-04-05T22:39:47.699Z,9.73
2023-04-05T22:42:14.659Z,8.90
2023-04-05T22:44:41.663Z,8.95
2023-04-05T22:47:08.644Z,11.25
2023-04-05T22:49:35.631Z,10.35
2023-04-05T22:52:02.669Z,9.40
2023-04-05T22:54:29.756Z,8.38
2023-04-05T22:56:56.883Z,9.32
2023-04-05T22:59:23.969Z,9.70
2023-04-05T23:01:51.483Z,8.75
2023-04-05T23:04:19.011Z,8.40
2023-04-05T23:06:46.053Z,8.95
2023-04-05T23:09:14.776Z,8.68
2023-04-05T23:11:41.884Z,8.07
2023-04-05T23:14:09.182Z,10.43
2023-04-05T23:16:36.413Z,8.40
2023-04-05T23:19:03.891Z,7.45
2023-04-05T23:21:31.322Z,8.73
2023-04-05T23:23:58.319Z,8.40
2023-04-05T23:26:27.497Z,8.52
2023-04-05T23:28:54.614Z,7.32
2023-04-05T23:31:21.632Z,8.10
2023-04-05T23:33:48.615Z,10.10
2023-04-05T23:36:15.732Z,9.77
2023-04-05T23:38:44.973Z,7.20
2023-04-05T23:41:13.189Z,7.60
2023-04-05T23:43:40.433Z,8.73
2023-04-05T23:46:07.977Z,9.10
2023-04-05T23:48:35.113Z,8.38
2023-04-05T23:51:02.225Z,7.25
2023-04-05T23:53:29.215Z,7.35
2023-04-05T23:55:57.046Z,8.20
2023-04-05T23:58:24.253Z,8.32
